sensor_id;sensor_type;location;lat;lon;timestamp;pressure;altitude;pressure_sealevel;temperature
74942;BMP280;63506;49.346;8.798;2024-02-21T00:02:17;101163.56;;;7.83
74942;BMP280;63506;49.346;8.798;2024-02-21T00:05:01;101157.06;;;7.84
74942;BMP280;63506;49.346;8.798;2024-02-21T00:07:48;101147.06;;;7.93
74942;BMP280;63506;49.346;8.798;2024-02-21T00:10:32;101153.94;;;7.99
74942;BMP280;63506;49.346;8.798;2024-02-21T00:13:19;101149.28;;;7.91
74942;BMP280;63506;49.346;8.798;2024-02-21T00:16:04;101137.38;;;7.92
74942;BMP280;63506;49.346;8.798;2024-02-21T00:18:48;101137.56;;;7.87
74942;BMP280;63506;49.346;8.798;2024-02-21T00:21:33;101131.69;;;7.85
74942;BMP280;63506;49.346;8.798;2024-02-21T00:24:22;101138.19;;;7.84
74942;BMP280;63506;49.346;8.798;2024-02-21T00:27:08;101129.00;;;7.85
74942;BMP280;63506;49.346;8.798;2024-02-21T00:29:55;101130.88;;;7.85
74942;BMP280;63506;49.346;8.798;2024-02-21T00:32:42;101147.53;;;7.78
74942;BMP280;63506;49.346;8.798;2024-02-21T00:35:26;101129.44;;;7.79
74942;BMP280;63506;49.346;8.798;2024-02-21T00:38:10;101129.59;;;7.91
74942;BMP280;63506;49.346;8.798;2024-02-21T00:40:59;101128.19;;;7.85
74942;BMP280;63506;49.346;8.798;2024-02-21T00:43:43;101124.56;;;7.89
74942;BMP280;63506;49.346;8.798;2024-02-21T00:46:35;101113.13;;;7.84
74942;BMP280;63506;49.346;8.798;2024-02-21T00:49:22;101100.41;;;7.84
74942;BMP280;63506;49.346;8.798;2024-02-21T00:52:06;101106.59;;;7.85
74942;BMP280;63506;49.346;8.798;2024-02-21T00:54:55;101105.50;;;7.86
74942;BMP280;63506;49.346;8.798;2024-02-21T00:57:39;101094.06;;;7.97
74942;BMP280;63506;49.346;8.798;2024-02-21T01:00:24;101084.91;;;7.98
74942;BMP280;63506;49.346;8.798;2024-02-21T01:03:13;101076.91;;;7.93
74942;BMP280;63506;49.346;8.798;2024-02-21T01:06:00;101073.91;;;7.95
74942;BMP280;63506;49.346;8.798;2024-02-21T01:08:44;101067.56;;;7.91
74942;BMP280;63506;49.346;8.798;2024-02-21T01:11:35;101063.00;;;8.00
74942;BMP280;63506;49.346;8.798;2024-02-21T01:14:22;101062.19;;;8.08
74942;BMP280;63506;49.346;8.798;2024-02-21T01:17:11;101071.69;;;8.06
74942;BMP280;63506;49.346;8.798;2024-02-21T01:20:01;101065.22;;;7.98
74942;BMP280;63506;49.346;8.798;2024-02-21T01:22:49;101054.41;;;7.98
74942;BMP280;63506;49.346;8.798;2024-02-21T01:25:35;101047.41;;;7.97
74942;BMP280;63506;49.346;8.798;2024-02-21T01:28:20;101046.44;;;7.93
74942;BMP280;63506;49.346;8.798;2024-02-21T01:31:06;101043.28;;;7.91
74942;BMP280;63506;49.346;8.798;2024-02-21T01:33:54;101050.91;;;7.80
74942;BMP280;63506;49.346;8.798;2024-02-21T01:36:44;101054.53;;;7.76
74942;BMP280;63506;49.346;8.798;2024-02-21T01:39:30;101057.09;;;7.81
74942;BMP280;63506;49.346;8.798;2024-02-21T01:42:17;101060.41;;;7.78
74942;BMP280;63506;49.346;8.798;2024-02-21T01:45:04;101060.41;;;7.78
74942;BMP280;63506;49.346;8.798;2024-02-21T01:47:52;101056.13;;;7.77
74942;BMP280;63506;49.346;8.798;2024-02-21T01:50:40;101050.56;;;7.73
74942;BMP280;63506;49.346;8.798;2024-02-21T01:53:32;101045.81;;;7.70
74942;BMP280;63506;49.346;8.798;2024-02-21T01:56:18;101040.59;;;7.65
74942;BMP280;63506;49.346;8.798;2024-02-21T01:59:03;101037.25;;;7.68
74942;BMP280;63506;49.346;8.798;2024-02-21T02:01:50;101042.00;;;7.71
74942;BMP280;63506;49.346;8.798;2024-02-21T02:04:40;101026.63;;;7.63
74942;BMP280;63506;49.346;8.798;2024-02-21T02:07:24;101033.13;;;7.71
74942;BMP280;63506;49.346;8.798;2024-02-21T02:10:13;101035.34;;;7.68
74942;BMP280;63506;49.346;8.798;2024-02-21T02:13:00;101024.53;;;7.60
74942;BMP280;63506;49.346;8.798;2024-02-21T02:15:48;101024.72;;;7.63
74942;BMP280;63506;49.346;8.798;2024-02-21T02:18:35;101036.13;;;7.69
74942;BMP280;63506;49.346;8.798;2024-02-21T02:21:24;101030.91;;;7.55
74942;BMP280;63506;49.346;8.798;2024-02-21T02:24:19;101021.53;;;7.61
74942;BMP280;63506;49.346;8.798;2024-02-21T02:27:03;101018.66;;;7.58
74942;BMP280;63506;49.346;8.798;2024-02-21T02:29:52;101016.75;;;7.58
74942;BMP280;63506;49.346;8.798;2024-02-21T02:32:39;100999.47;;;7.59
74942;BMP280;63506;49.346;8.798;2024-02-21T02:35:26;101004.75;;;7.64
74942;BMP280;63506;49.346;8.798;2024-02-21T02:38:10;100979.84;;;7.68
74942;BMP280;63506;49.346;8.798;2024-02-21T02:40:57;100975.88;;;7.65
74942;BMP280;63506;49.346;8.798;2024-02-21T02:43:41;100979.31;;;7.57
74942;BMP280;63506;49.346;8.798;2024-02-21T02:46:28;100976.34;;;7.67
74942;BMP280;63506;49.346;8.798;2024-02-21T02:49:15;100963.47;;;7.55
74942;BMP280;63506;49.346;8.798;2024-02-21T02:52:01;100965.22;;;7.43
74942;BMP280;63506;49.346;8.798;2024-02-21T02:54:48;100959.19;;;7.46
74942;BMP280;63506;49.346;8.798;2024-02-21T02:57:38;100947.94;;;7.44
74942;BMP280;63506;49.346;8.798;2024-02-21T03:00:25;100950.16;;;7.42
74942;BMP280;63506;49.346;8.798;2024-02-21T03:03:14;100960.13;;;7.41
74942;BMP280;63506;49.346;8.798;2024-02-21T03:06:01;100952.84;;;7.50
74942;BMP280;63506;49.346;8.798;2024-02-21T03:08:49;100973.78;;;7.45
74942;BMP280;63506;49.346;8.798;2024-02-21T03:11:39;100964.25;;;7.47
74942;BMP280;63506;49.346;8.798;2024-02-21T03:14:32;100948.88;;;7.39
74942;BMP280;63506;49.346;8.798;2024-02-21T03:17:17;100938.25;;;7.43
74942;BMP280;63506;49.346;8.798;2024-02-21T03:20:01;100932.03;;;7.25
74942;BMP280;63506;49.346;8.798;2024-02-21T03:22:46;100938.06;;;7.22
74942;BMP280;63506;49.346;8.798;2024-02-21T03:25:31;100929.34;;;7.25
74942;BMP280;63506;49.346;8.798;2024-02-21T03:28:17;100925.25;;;7.36
74942;BMP280;63506;49.346;8.798;2024-02-21T03:31:04;100911.16;;;7.30
74942;BMP280;63506;49.346;8.798;2024-02-21T03:33:48;100909.84;;;7.28
74942;BMP280;63506;49.346;8.798;2024-02-21T03:36:35;100910.19;;;7.18
74942;BMP280;63506;49.346;8.798;2024-02-21T03:39:24;100913.34;;;7.11
74942;BMP280;63506;49.346;8.798;2024-02-21T03:42:11;100906.06;;;7.12
74942;BMP280;63506;49.346;8.798;2024-02-21T03:44:57;100898.25;;;7.10
74942;BMP280;63506;49.346;8.798;2024-02-21T03:50:35;100898.69;;;6.86
74942;BMP280;63506;49.346;8.798;2024-02-21T03:53:19;100902.34;;;6.90
74942;BMP280;63506;49.346;8.798;2024-02-21T03:56:06;100900.16;;;6.84
74942;BMP280;63506;49.346;8.798;2024-02-21T03:58:50;100891.22;;;6.75
74942;BMP280;63506;49.346;8.798;2024-02-21T04:01:35;100894.38;;;6.68
74942;BMP280;63506;49.346;8.798;2024-02-21T04:04:19;100895.50;;;6.67
74942;BMP280;63506;49.346;8.798;2024-02-21T04:07:09;100901.63;;;6.59
74942;BMP280;63506;49.346;8.798;2024-02-21T04:09:53;100907.00;;;6.50
74942;BMP280;63506;49.346;8.798;2024-02-21T04:12:42;100915.06;;;6.42
74942;BMP280;63506;49.346;8.798;2024-02-21T04:15:29;100917.06;;;6.36
74942;BMP280;63506;49.346;8.798;2024-02-21T04:18:15;100919.81;;;6.22
74942;BMP280;63506;49.346;8.798;2024-02-21T04:20:59;100917.59;;;6.16
74942;BMP280;63506;49.346;8.798;2024-02-21T04:23:46;100924.50;;;6.08
74942;BMP280;63506;49.346;8.798;2024-02-21T04:26:38;100930.63;;;6.00
74942;BMP280;63506;49.346;8.798;2024-02-21T04:29:27;100919.50;;;5.93
74942;BMP280;63506;49.346;8.798;2024-02-21T04:32:14;100909.06;;;5.91
74942;BMP280;63506;49.346;8.798;2024-02-21T04:34:58;100903.16;;;5.89
74942;BMP280;63506;49.346;8.798;2024-02-21T04:37:43;100892.75;;;5.88
74942;BMP280;63506;49.346;8.798;2024-02-21T04:40:30;100896.47;;;6.00
74942;BMP280;63506;49.346;8.798;2024-02-21T04:43:14;100892.38;;;6.03
74942;BMP280;63506;49.346;8.798;2024-02-21T04:45:58;100892.81;;;6.05
74942;BMP280;63506;49.346;8.798;2024-02-21T04:48:47;100887.53;;;6.14
74942;BMP280;63506;49.346;8.798;2024-02-21T04:51:34;100873.13;;;6.18
74942;BMP280;63506;49.346;8.798;2024-02-21T04:54:18;100878.19;;;6.20
74942;BMP280;63506;49.346;8.798;2024-02-21T04:57:07;100865.13;;;6.27
74942;BMP280;63506;49.346;8.798;2024-02-21T04:59:54;100871.69;;;6.21
74942;BMP280;63506;49.346;8.798;2024-02-21T05:02:43;100860.03;;;6.25
74942;BMP280;63506;49.346;8.798;2024-02-21T05:05:27;100862.34;;;6.18
74942;BMP280;63506;49.346;8.798;2024-02-21T05:08:13;100865.81;;;6.10
74942;BMP280;63506;49.346;8.798;2024-02-21T05:10:58;100851.22;;;6.03
74942;BMP280;63506;49.346;8.798;2024-02-21T05:13:47;100840.84;;;5.87
74942;BMP280;63506;49.346;8.798;2024-02-21T05:16:34;100840.19;;;5.82
74942;BMP280;63506;49.346;8.798;2024-02-21T05:19:18;100837.13;;;5.75
74942;BMP280;63506;49.346;8.798;2024-02-21T05:22:02;100839.28;;;5.64
74942;BMP280;63506;49.346;8.798;2024-02-21T05:24:47;100840.53;;;5.58
74942;BMP280;63506;49.346;8.798;2024-02-21T05:27:33;100835.84;;;5.50
74942;BMP280;63506;49.346;8.798;2024-02-21T05:30:24;100832.81;;;5.43
74942;BMP280;63506;49.346;8.798;2024-02-21T05:33:09;100836.44;;;5.38
74942;BMP280;63506;49.346;8.798;2024-02-21T05:35:56;100825.78;;;5.33
74942;BMP280;63506;49.346;8.798;2024-02-21T05:38:42;100830.97;;;5.29
74942;BMP280;63506;49.346;8.798;2024-02-21T05:41:31;100836.63;;;5.28
74942;BMP280;63506;49.346;8.798;2024-02-21T05:44:18;100838.19;;;5.20
74942;BMP280;63506;49.346;8.798;2024-02-21T05:47:08;100842.00;;;5.06
74942;BMP280;63506;49.346;8.798;2024-02-21T05:49:59;100828.94;;;4.99
74942;BMP280;63506;49.346;8.798;2024-02-21T05:52:45;100829.66;;;5.05
74942;BMP280;63506;49.346;8.798;2024-02-21T05:55:32;100814.84;;;4.93
74942;BMP280;63506;49.346;8.798;2024-02-21T05:58:18;100821.22;;;4.84
74942;BMP280;63506;49.346;8.798;2024-02-21T06:01:03;100818.00;;;4.73
74942;BMP280;63506;49.346;8.798;2024-02-21T06:03:53;100816.38;;;4.58
74942;BMP280;63506;49.346;8.798;2024-02-21T06:06:41;100815.72;;;4.53
74942;BMP280;63506;49.346;8.798;2024-02-21T06:09:30;100821.47;;;4.46
74942;BMP280;63506;49.346;8.798;2024-02-21T06:12:16;100815.59;;;4.30
74942;BMP280;63506;49.346;8.798;2024-02-21T06:15:01;100811.00;;;4.17
74942;BMP280;63506;49.346;8.798;2024-02-21T06:17:47;100798.28;;;4.09
74942;BMP280;63506;49.346;8.798;2024-02-21T06:20:34;100802.66;;;4.05
74942;BMP280;63506;49.346;8.798;2024-02-21T06:23:21;100803.75;;;4.04
74942;BMP280;63506;49.346;8.798;2024-02-21T06:26:05;100801.44;;;3.97
74942;BMP280;63506;49.346;8.798;2024-02-21T06:28:52;100795.28;;;3.97
74942;BMP280;63506;49.346;8.798;2024-02-21T06:31:36;100793.81;;;3.91
74942;BMP280;63506;49.346;8.798;2024-02-21T06:34:21;100798.66;;;3.89
74942;BMP280;63506;49.346;8.798;2024-02-21T06:37:08;100803.31;;;3.97
74942;BMP280;63506;49.346;8.798;2024-02-21T06:39:54;100803.44;;;3.92
74942;BMP280;63506;49.346;8.798;2024-02-21T06:42:39;100811.97;;;3.94
74942;BMP280;63506;49.346;8.798;2024-02-21T06:45:23;100805.69;;;3.98
74942;BMP280;63506;49.346;8.798;2024-02-21T06:48:07;100804.84;;;4.03
74942;BMP280;63506;49.346;8.798;2024-02-21T06:50:51;100800.88;;;4.14
74942;BMP280;63506;49.346;8.798;2024-02-21T06:53:38;100798.59;;;4.21
74942;BMP280;63506;49.346;8.798;2024-02-21T06:56:25;100796.31;;;4.28
74942;BMP280;63506;49.346;8.798;2024-02-21T06:59:10;100797.13;;;4.43
74942;BMP280;63506;49.346;8.798;2024-02-21T07:01:59;100793.47;;;4.52
74942;BMP280;63506;49.346;8.798;2024-02-21T07:04:45;100797.72;;;4.53
74942;BMP280;63506;49.346;8.798;2024-02-21T07:07:32;100802.06;;;4.63
74942;BMP280;63506;49.346;8.798;2024-02-21T07:10:21;100807.34;;;4.68
74942;BMP280;63506;49.346;8.798;2024-02-21T07:13:07;100802.13;;;4.85
74942;BMP280;63506;49.346;8.798;2024-02-21T07:15:54;100799.59;;;5.02
74942;BMP280;63506;49.346;8.798;2024-02-21T07:18:40;100802.00;;;5.40
74942;BMP280;63506;49.346;8.798;2024-02-21T07:21:27;100799.75;;;5.64
74942;BMP280;63506;49.346;8.798;2024-02-21T07:24:11;100784.91;;;5.98
74942;BMP280;63506;49.346;8.798;2024-02-21T07:26:58;100786.16;;;6.40
74942;BMP280;63506;49.346;8.798;2024-02-21T07:29:45;100785.72;;;7.24
74942;BMP280;63506;49.346;8.798;2024-02-21T07:32:30;100781.97;;;7.72
74942;BMP280;63506;49.346;8.798;2024-02-21T07:35:15;100786.19;;;7.90
74942;BMP280;63506;49.346;8.798;2024-02-21T07:37:59;100793.63;;;8.73
74942;BMP280;63506;49.346;8.798;2024-02-21T07:40:44;100778.03;;;8.79
74942;BMP280;63506;49.346;8.798;2024-02-21T07:43:31;100778.28;;;8.86
74942;BMP280;63506;49.346;8.798;2024-02-21T07:46:15;100776.31;;;8.74
74942;BMP280;63506;49.346;8.798;2024-02-21T07:49:02;100780.53;;;8.42
74942;BMP280;63506;49.346;8.798;2024-02-21T07:51:46;100783.28;;;8.54
74942;BMP280;63506;49.346;8.798;2024-02-21T07:54:30;100784.06;;;8.34
74942;BMP280;63506;49.346;8.798;2024-02-21T07:57:15;100780.03;;;8.69
74942;BMP280;63506;49.346;8.798;2024-02-21T08:00:02;100776.25;;;8.83
74942;BMP280;63506;49.346;8.798;2024-02-21T08:02:56;100774.47;;;8.87
74942;BMP280;63506;49.346;8.798;2024-02-21T08:05:42;100769.06;;;8.87
74942;BMP280;63506;49.346;8.798;2024-02-21T08:08:27;100757.19;;;9.12
74942;BMP280;63506;49.346;8.798;2024-02-21T08:11:16;100760.00;;;9.03
74942;BMP280;63506;49.346;8.798;2024-02-21T08:14:02;100750.97;;;9.20
74942;BMP280;63506;49.346;8.798;2024-02-21T08:16:51;100758.22;;;9.08
74942;BMP280;63506;49.346;8.798;2024-02-21T08:19:43;100750.91;;;9.08
74942;BMP280;63506;49.346;8.798;2024-02-21T08:22:32;100749.88;;;9.13
74942;BMP280;63506;49.346;8.798;2024-02-21T08:25:16;100749.31;;;9.07
74942;BMP280;63506;49.346;8.798;2024-02-21T08:28:04;100739.72;;;8.97
74942;BMP280;63506;49.346;8.798;2024-02-21T08:30:49;100746.28;;;9.09
74942;BMP280;63506;49.346;8.798;2024-02-21T08:33:38;100744.72;;;9.08
74942;BMP280;63506;49.346;8.798;2024-02-21T08:36:25;100742.09;;;8.99
74942;BMP280;63506;49.346;8.798;2024-02-21T08:39:14;100734.97;;;8.94
74942;BMP280;63506;49.346;8.798;2024-02-21T08:42:01;100736.66;;;9.20
74942;BMP280;63506;49.346;8.798;2024-02-21T08:44:48;100731.66;;;9.10
74942;BMP280;63506;49.346;8.798;2024-02-21T08:47:33;100723.41;;;9.06
74942;BMP280;63506;49.346;8.798;2024-02-21T08:50:24;100716.78;;;9.16
74942;BMP280;63506;49.346;8.798;2024-02-21T08:53:08;100710.69;;;9.07
74942;BMP280;63506;49.346;8.798;2024-02-21T08:55:54;100710.97;;;9.26
74942;BMP280;63506;49.346;8.798;2024-02-21T08:58:40;100716.72;;;9.36
74942;BMP280;63506;49.346;8.798;2024-02-21T09:01:29;100723.69;;;9.50
74942;BMP280;63506;49.346;8.798;2024-02-21T09:04:18;100721.00;;;9.50
74942;BMP280;63506;49.346;8.798;2024-02-21T09:07:04;100712.44;;;9.48
74942;BMP280;63506;49.346;8.798;2024-02-21T09:09:51;100713.88;;;9.33
74942;BMP280;63506;49.346;8.798;2024-02-21T09:12:37;100716.97;;;9.56
74942;BMP280;63506;49.346;8.798;2024-02-21T09:15:24;100713.56;;;9.95
74942;BMP280;63506;49.346;8.798;2024-02-21T09:18:13;100707.75;;;10.21
74942;BMP280;63506;49.346;8.798;2024-02-21T09:21:02;100710.31;;;10.30
74942;BMP280;63506;49.346;8.798;2024-02-21T09:23:54;100699.69;;;10.37
74942;BMP280;63506;49.346;8.798;2024-02-21T09:26:40;100696.19;;;10.64
74942;BMP280;63506;49.346;8.798;2024-02-21T09:29:27;100690.81;;;10.80
74942;BMP280;63506;49.346;8.798;2024-02-21T09:32:15;100684.56;;;11.07
74942;BMP280;63506;49.346;8.798;2024-02-21T09:35:02;100677.44;;;11.50
74942;BMP280;63506;49.346;8.798;2024-02-21T09:37:51;100687.19;;;11.70
74942;BMP280;63506;49.346;8.798;2024-02-21T09:40:44;100682.31;;;11.95
74942;BMP280;63506;49.346;8.798;2024-02-21T09:43:31;100681.66;;;11.82
74942;BMP280;63506;49.346;8.798;2024-02-21T09:46:18;100666.56;;;11.85
74942;BMP280;63506;49.346;8.798;2024-02-21T09:49:09;100669.38;;;11.89
74942;BMP280;63506;49.346;8.798;2024-02-21T09:52:00;100677.09;;;11.86
74942;BMP280;63506;49.346;8.798;2024-02-21T09:54:47;100669.34;;;11.69
74942;BMP280;63506;49.346;8.798;2024-02-21T09:57:37;100665.63;;;11.77
74942;BMP280;63506;49.346;8.798;2024-02-21T10:00:24;100668.59;;;12.07
74942;BMP280;63506;49.346;8.798;2024-02-21T10:03:09;100648.66;;;12.38
74942;BMP280;63506;49.346;8.798;2024-02-21T10:05:59;100649.69;;;12.53
74942;BMP280;63506;49.346;8.798;2024-02-21T10:08:52;100645.25;;;12.45
74942;BMP280;63506;49.346;8.798;2024-02-21T10:11:39;100646.13;;;12.49
74942;BMP280;63506;49.346;8.798;2024-02-21T10:14:25;100642.13;;;12.43
74942;BMP280;63506;49.346;8.798;2024-02-21T10:17:16;100639.88;;;12.68
74942;BMP280;63506;49.346;8.798;2024-02-21T10:20:08;100640.38;;;12.77
74942;BMP280;63506;49.346;8.798;2024-02-21T10:23:00;100634.53;;;12.52
74942;BMP280;63506;49.346;8.798;2024-02-21T10:25:49;100631.31;;;12.69
74942;BMP280;63506;49.346;8.798;2024-02-21T10:28:33;100623.16;;;12.69
74942;BMP280;63506;49.346;8.798;2024-02-21T10:31:26;100615.75;;;12.66
74942;BMP280;63506;49.346;8.798;2024-02-21T10:34:16;100611.25;;;12.77
74942;BMP280;63506;49.346;8.798;2024-02-21T10:37:07;100606.22;;;12.53
74942;BMP280;63506;49.346;8.798;2024-02-21T10:39:54;100607.94;;;12.65
74942;BMP280;63506;49.346;8.798;2024-02-21T10:42:43;100609.97;;;12.68
74942;BMP280;63506;49.346;8.798;2024-02-21T10:45:30;100606.97;;;12.76
74942;BMP280;63506;49.346;8.798;2024-02-21T10:48:24;100602.59;;;12.68
74942;BMP280;63506;49.346;8.798;2024-02-21T10:51:16;100589.38;;;12.93
74942;BMP280;63506;49.346;8.798;2024-02-21T10:54:13;100574.53;;;12.87
74942;BMP280;63506;49.346;8.798;2024-02-21T10:57:12;100567.72;;;12.74
74942;BMP280;63506;49.346;8.798;2024-02-21T10:59:58;100567.41;;;12.79
74942;BMP280;63506;49.346;8.798;2024-02-21T11:02:44;100563.31;;;12.88
74942;BMP280;63506;49.346;8.798;2024-02-21T11:05:32;100556.09;;;12.77
74942;BMP280;63506;49.346;8.798;2024-02-21T11:08:17;100551.53;;;12.58
74942;BMP280;63506;49.346;8.798;2024-02-21T11:11:04;100546.16;;;12.62
74942;BMP280;63506;49.346;8.798;2024-02-21T11:13:51;100536.00;;;12.58
74942;BMP280;63506;49.346;8.798;2024-02-21T11:16:40;100534.88;;;12.59
74942;BMP280;63506;49.346;8.798;2024-02-21T11:19:29;100534.47;;;12.84
74942;BMP280;63506;49.346;8.798;2024-02-21T11:22:19;100531.50;;;12.96
74942;BMP280;63506;49.346;8.798;2024-02-21T11:25:06;100527.56;;;12.90
74942;BMP280;63506;49.346;8.798;2024-02-21T11:28:00;100514.34;;;12.88
74942;BMP280;63506;49.346;8.798;2024-02-21T11:30:44;100514.41;;;12.95
74942;BMP280;63506;49.346;8.798;2024-02-21T11:33:34;100516.44;;;12.72
74942;BMP280;63506;49.346;8.798;2024-02-21T11:36:24;100506.53;;;12.61
74942;BMP280;63506;49.346;8.798;2024-02-21T11:42:28;100496.47;;;12.38
74942;BMP280;63506;49.346;8.798;2024-02-21T11:45:14;100490.75;;;12.20
74942;BMP280;63506;49.346;8.798;2024-02-21T11:48:01;100478.06;;;12.28
74942;BMP280;63506;49.346;8.798;2024-02-21T11:50:53;100477.34;;;12.54
74942;BMP280;63506;49.346;8.798;2024-02-21T11:53:39;100457.31;;;12.66
74942;BMP280;63506;49.346;8.798;2024-02-21T11:56:26;100451.25;;;12.49
74942;BMP280;63506;49.346;8.798;2024-02-21T11:59:17;100445.69;;;12.42
74942;BMP280;63506;49.346;8.798;2024-02-21T12:02:02;100445.75;;;12.72
74942;BMP280;63506;49.346;8.798;2024-02-21T12:04:49;100437.63;;;12.76
74942;BMP280;63506;49.346;8.798;2024-02-21T12:07:36;100431.22;;;12.61
74942;BMP280;63506;49.346;8.798;2024-02-21T12:10:21;100437.50;;;12.65
74942;BMP280;63506;49.346;8.798;2024-02-21T12:13:06;100424.38;;;12.71
74942;BMP280;63506;49.346;8.798;2024-02-21T12:15:56;100418.41;;;12.91
74942;BMP280;63506;49.346;8.798;2024-02-21T12:18:43;100409.53;;;12.94
74942;BMP280;63506;49.346;8.798;2024-02-21T12:21:33;100406.75;;;12.61
74942;BMP280;63506;49.346;8.798;2024-02-21T12:24:21;100400.94;;;12.63
74942;BMP280;63506;49.346;8.798;2024-02-21T12:27:08;100399.19;;;12.77
74942;BMP280;63506;49.346;8.798;2024-02-21T12:29:52;100398.59;;;12.91
74942;BMP280;63506;49.346;8.798;2024-02-21T12:32:39;100390.97;;;13.00
74942;BMP280;63506;49.346;8.798;2024-02-21T12:35:23;100381.56;;;12.98
74942;BMP280;63506;49.346;8.798;2024-02-21T12:38:12;100372.00;;;12.77
74942;BMP280;63506;49.346;8.798;2024-02-21T12:40:56;100360.81;;;12.82
74942;BMP280;63506;49.346;8.798;2024-02-21T12:43:41;100366.13;;;12.72
74942;BMP280;63506;49.346;8.798;2024-02-21T12:46:28;100356.28;;;12.64
74942;BMP280;63506;49.346;8.798;2024-02-21T12:49:19;100350.63;;;12.76
74942;BMP280;63506;49.346;8.798;2024-02-21T12:52:07;100343.94;;;12.66
74942;BMP280;63506;49.346;8.798;2024-02-21T12:54:53;100335.00;;;12.66
74942;BMP280;63506;49.346;8.798;2024-02-21T12:57:40;100325.56;;;12.89
74942;BMP280;63506;49.346;8.798;2024-02-21T13:00:24;100338.84;;;12.98
74942;BMP280;63506;49.346;8.798;2024-02-21T13:03:11;100312.25;;;12.81
74942;BMP280;63506;49.346;8.798;2024-02-21T13:05:58;100313.69;;;12.71
74942;BMP280;63506;49.346;8.798;2024-02-21T13:08:42;100306.91;;;12.88
74942;BMP280;63506;49.346;8.798;2024-02-21T13:11:29;100298.13;;;13.02
74942;BMP280;63506;49.346;8.798;2024-02-21T13:14:18;100279.38;;;12.93
74942;BMP280;63506;49.346;8.798;2024-02-21T13:17:06;100272.94;;;13.08
74942;BMP280;63506;49.346;8.798;2024-02-21T13:19:53;100273.09;;;13.26
74942;BMP280;63506;49.346;8.798;2024-02-21T13:22:42;100275.50;;;12.98
74942;BMP280;63506;49.346;8.798;2024-02-21T13:25:28;100268.59;;;13.00
74942;BMP280;63506;49.346;8.798;2024-02-21T13:28:13;100269.28;;;12.97
74942;BMP280;63506;49.346;8.798;2024-02-21T13:31:02;100256.78;;;12.89
74942;BMP280;63506;49.346;8.798;2024-02-21T13:33:47;100260.34;;;12.96
74942;BMP280;63506;49.346;8.798;2024-02-21T13:36:31;100251.81;;;12.98
74942;BMP280;63506;49.346;8.798;2024-02-21T13:39:18;100247.53;;;12.93
74942;BMP280;63506;49.346;8.798;2024-02-21T13:42:05;100246.31;;;12.91
74942;BMP280;63506;49.346;8.798;2024-02-21T13:44:49;100233.03;;;12.82
74942;BMP280;63506;49.346;8.798;2024-02-21T13:47:39;100223.13;;;12.64
74942;BMP280;63506;49.346;8.798;2024-02-21T13:50:27;100216.59;;;12.68
74942;BMP280;63506;49.346;8.798;2024-02-21T13:53:13;100220.50;;;12.71
74942;BMP280;63506;49.346;8.798;2024-02-21T13:56:02;100218.03;;;12.58
74942;BMP280;63506;49.346;8.798;2024-02-21T13:58:47;100222.03;;;12.68
74942;BMP280;63506;49.346;8.798;2024-02-21T14:01:31;100213.72;;;12.54
74942;BMP280;63506;49.346;8.798;2024-02-21T14:04:16;100208.50;;;12.42
74942;BMP280;63506;49.346;8.798;2024-02-21T14:07:01;100200.41;;;12.45
74942;BMP280;63506;49.346;8.798;2024-02-21T14:09:50;100179.47;;;12.46
74942;BMP280;63506;49.346;8.798;2024-02-21T14:12:42;100192.78;;;12.58
74942;BMP280;63506;49.346;8.798;2024-02-21T14:15:31;100170.63;;;12.52
74942;BMP280;63506;49.346;8.798;2024-02-21T14:18:15;100166.66;;;12.46
74942;BMP280;63506;49.346;8.798;2024-02-21T14:21:04;100151.28;;;12.61
74942;BMP280;63506;49.346;8.798;2024-02-21T14:23:54;100148.25;;;12.66
74942;BMP280;63506;49.346;8.798;2024-02-21T14:26:40;100138.59;;;12.76
74942;BMP280;63506;49.346;8.798;2024-02-21T14:29:32;100137.28;;;12.63
74942;BMP280;63506;49.346;8.798;2024-02-21T14:32:17;100134.00;;;12.43
74942;BMP280;63506;49.346;8.798;2024-02-21T14:35:06;100125.06;;;12.42
74942;BMP280;63506;49.346;8.798;2024-02-21T14:37:56;100123.50;;;12.38
74942;BMP280;63506;49.346;8.798;2024-02-21T14:40:42;100118.34;;;12.29
74942;BMP280;63506;49.346;8.798;2024-02-21T14:43:29;100119.28;;;12.44
74942;BMP280;63506;49.346;8.798;2024-02-21T14:46:16;100108.22;;;12.26
74942;BMP280;63506;49.346;8.798;2024-02-21T14:49:02;100091.69;;;12.38
74942;BMP280;63506;49.346;8.798;2024-02-21T14:51:51;100086.47;;;12.22
74942;BMP280;63506;49.346;8.798;2024-02-21T14:54:40;100083.88;;;12.33
74942;BMP280;63506;49.346;8.798;2024-02-21T14:57:32;100069.53;;;12.36
74942;BMP280;63506;49.346;8.798;2024-02-21T15:00:20;100071.50;;;12.39
74942;BMP280;63506;49.346;8.798;2024-02-21T15:03:16;100065.38;;;12.49
74942;BMP280;63506;49.346;8.798;2024-02-21T15:06:03;100059.50;;;12.44
74942;BMP280;63506;49.346;8.798;2024-02-21T15:08:49;100066.94;;;12.50
74942;BMP280;63506;49.346;8.798;2024-02-21T15:11:34;100057.31;;;12.16
74942;BMP280;63506;49.346;8.798;2024-02-21T15:14:20;100058.72;;;12.06
74942;BMP280;63506;49.346;8.798;2024-02-21T15:17:05;100065.78;;;12.11
74942;BMP280;63506;49.346;8.798;2024-02-21T15:19:56;100052.91;;;12.04
74942;BMP280;63506;49.346;8.798;2024-02-21T15:22:41;100045.88;;;12.00
74942;BMP280;63506;49.346;8.798;2024-02-21T15:25:28;100041.72;;;12.13
74942;BMP280;63506;49.346;8.798;2024-02-21T15:28:17;100044.72;;;11.97
74942;BMP280;63506;49.346;8.798;2024-02-21T15:31:08;100032.97;;;11.90
74942;BMP280;63506;49.346;8.798;2024-02-21T15:33:55;100030.16;;;11.79
74942;BMP280;63506;49.346;8.798;2024-02-21T15:36:43;100028.56;;;11.78
74942;BMP280;63506;49.346;8.798;2024-02-21T15:39:27;100014.72;;;11.86
74942;BMP280;63506;49.346;8.798;2024-02-21T15:42:11;100010.78;;;11.80
74942;BMP280;63506;49.346;8.798;2024-02-21T15:44:58;100004.03;;;11.67
74942;BMP280;63506;49.346;8.798;2024-02-21T15:47:50;99989.13;;;11.84
74942;BMP280;63506;49.346;8.798;2024-02-21T15:50:35;99982.50;;;11.81
74942;BMP280;63506;49.346;8.798;2024-02-21T15:53:22;99965.66;;;11.65
74942;BMP280;63506;49.346;8.798;2024-02-21T15:56:09;99974.09;;;11.60
74942;BMP280;63506;49.346;8.798;2024-02-21T15:58:55;99965.19;;;11.60
74942;BMP280;63506;49.346;8.798;2024-02-21T16:01:41;99962.31;;;11.45
74942;BMP280;63506;49.346;8.798;2024-02-21T16:04:28;99960.63;;;11.34